La Salle, MI (48145)

3:26 AM EST on February 08, 2016 (GMT -0500)
La Salle | | Change Station
CLOSE
Current Station
Personal Weather Station
Location: La Salle, MI
Elevation: 610 ft
Nearby Weather Stations

Elev 610 ft 41.87 °N, 83.47 °W | Updated 14 seconds ago

Overcast
Overcast
39.4 °F
Feels Like 39 °F
N
0.2
Wind Variable Wind from SW
Gusts 2.5 mph

Today
High -- | Low -- °F
--% Chance of Precip.
Yesterday
High -- | Low -- °F
Precip. -- in
Pressure 29.65 in
Visibility 10.0 miles
Clouds Mostly Cloudy 3000 ft
Overcast 5500 ft
Windchill 39 °F
Dew Point 31 °F
Humidity 72%
Rainfall 0.00 in
Snow Depth Not available.
7:39 AM 5:57 PM
Waning Crescent, 0% visible
METAR KTTF 080813Z AUTO 24006KT 10SM BKN030 OVC055 04/00 A2965 RMK AO2 T00350002
Pressure 29.65 in
Visibility 10.0 miles
Clouds Mostly Cloudy 3000 ft
Overcast 5500 ft
Windchill 39 °F
Dew Point 31 °F
Humidity 72%
Rainfall 0.00 in
Snow Depth Not available.
7:39 AM 5:57 PM
Waning Crescent, 0% visible
METAR KTTF 080813Z AUTO 24006KT 10SM BKN030 OVC055 04/00 A2965 RMK AO2 T00350002

10-Day Weather Forecast

Almanac

Astronomy

Feb. 08, 2016 Rise Set
Actual Time
Civil Twilight
Nautical Twilight
Astronomical Twilight
Moon
Length of Visible Light
Length of Day
Tomorrow will be .
, % of the Moon is Illuminated

Today's Extremes

State Highs State Lows

Community

WunderPhotos

Upload Photos

1,891,412 photos uploaded!

WunderBlog® & News

Nearby

Air Quality

  Air Quality AQ Index Pollutant
Not available.

Snow Depth

Station Depth Elevation

Earthquake Activity

City Distance Mag. Time & Date
Minimum magnitude displayed is 2.5.

Coastal Water Temperatures

Place Temperature

Stations

Nearby Weather Stations

Station Location Temp. Windchill Dew Point Humidity Wind Precip. Elev Updated Type
                   

Watches & Warnings

There are currently no watches in effect.